createdAt,value
2022-11-01T00:00:35.530Z,2.60
2022-11-01T00:03:02.452Z,2.80
2022-11-01T00:05:29.314Z,2.65
2022-11-01T00:07:56.166Z,2.58
2022-11-01T00:10:23.053Z,3.05
2022-11-01T00:12:49.922Z,2.42
2022-11-01T00:15:16.824Z,2.42
2022-11-01T00:17:43.697Z,2.85
2022-11-01T00:20:11.275Z,3.08
2022-11-01T00:22:38.142Z,3.08
2022-11-01T00:25:05.378Z,2.55
2022-11-01T00:27:32.225Z,2.53
2022-11-01T00:29:59.111Z,2.67
2022-11-01T00:32:26.006Z,3.15
2022-11-01T00:34:53.068Z,3.17
2022-11-01T00:37:20.568Z,3.00
2022-11-01T00:39:47.503Z,3.42
2022-11-01T00:42:14.382Z,3.30
2022-11-01T00:44:41.367Z,2.92
2022-11-01T00:47:08.205Z,3.30
2022-11-01T00:49:35.086Z,4.03
2022-11-01T00:52:01.920Z,2.90
2022-11-01T00:54:28.783Z,3.10
2022-11-01T00:56:55.670Z,2.92
2022-11-01T00:59:22.637Z,3.03
2022-11-01T01:01:49.563Z,3.30
2022-11-01T01:04:16.577Z,2.92
2022-11-01T01:06:43.492Z,3.25
2022-11-01T01:09:11.284Z,3.42
2022-11-01T01:11:38.163Z,2.97
2022-11-01T01:14:05.291Z,3.35
2022-11-01T01:16:32.259Z,3.00
2022-11-01T01:18:59.260Z,3.00
2022-11-01T01:21:26.117Z,3.47
2022-11-01T01:23:54.946Z,2.60
2022-11-01T01:26:21.843Z,3.22
2022-11-01T01:28:48.746Z,3.25
2022-11-01T01:31:15.731Z,2.50
2022-11-01T01:33:42.641Z,2.30
2022-11-01T01:36:09.645Z,2.60
2022-11-01T01:38:36.541Z,2.80
2022-11-01T01:41:22.129Z,2.95
2022-11-01T01:43:49.012Z,2.97
2022-11-01T01:46:15.935Z,2.67
2022-11-01T01:48:44.442Z,3.20
2022-11-01T01:51:14.604Z,3.22
2022-11-01T01:53:46.656Z,3.40
2022-11-01T01:56:15.594Z,3.40
2022-11-01T01:58:43.827Z,3.33
2022-11-01T02:01:10.901Z,3.15
2022-11-01T02:03:37.983Z,3.30
2022-11-01T02:06:09.429Z,2.78
2022-11-01T02:08:42.085Z,3.47
2022-11-01T02:11:09.387Z,3.13
2022-11-01T02:13:36.385Z,2.85
2022-11-01T02:16:41.145Z,3.38
2022-11-01T02:19:33.352Z,3.10
2022-11-01T02:24:43.239Z,3.50
2022-11-01T02:27:40.945Z,2.67
2022-11-01T02:30:21.252Z,2.40
2022-11-01T02:33:05.540Z,1.60
2022-11-01T02:35:56.126Z,1.95
2022-11-01T02:38:29.284Z,1.50
2022-11-01T02:41:08.862Z,1.40
2022-11-01T02:43:38.906Z,0.98
2022-11-01T02:46:25.759Z,1.10
2022-11-01T02:48:52.653Z,1.10
2022-11-01T02:51:20.712Z,1.10
2022-11-01T02:53:47.590Z,1.10
2022-11-01T02:56:15.847Z,1.02
2022-11-01T02:58:42.734Z,1.20
2022-11-01T03:01:16.441Z,1.30
2022-11-01T03:03:45.044Z,1.58
2022-11-01T03:06:24.929Z,1.58
2022-11-01T03:08:57.722Z,1.30
2022-11-01T03:11:32.619Z,1.38
2022-11-01T03:14:22.367Z,1.38
2022-11-01T03:17:03.162Z,1.73
2022-11-01T03:19:41.389Z,1.95
2022-11-01T03:22:46.773Z,2.22
2022-11-01T03:25:35.914Z,2.20
2022-11-01T03:28:15.750Z,2.10
2022-11-01T03:30:45.661Z,2.80
2022-11-01T03:33:13.582Z,2.88
2022-11-01T03:35:40.890Z,2.55
2022-11-01T03:38:09.789Z,2.47
2022-11-01T03:40:36.657Z,3.05
2022-11-01T03:43:06.018Z,3.80
2022-11-01T03:45:33.993Z,2.92
2022-11-01T03:48:01.476Z,3.50
2022-11-01T03:50:28.899Z,3.33
2022-11-01T03:52:55.942Z,2.90
2022-11-01T03:55:23.112Z,2.65
2022-11-01T03:57:54.835Z,3.08
2022-11-01T04:00:27.518Z,4.15
2022-11-01T04:02:55.511Z,3.05
2022-11-01T04:05:23.923Z,2.90
2022-11-01T04:07:51.616Z,2.90
2022-11-01T04:10:19.173Z,3.33
2022-11-01T04:12:46.751Z,3.08
2022-11-01T04:15:32.320Z,3.53
2022-11-01T04:18:24.664Z,3.17
2022-11-01T04:20:51.803Z,3.22
2022-11-01T04:23:18.699Z,3.10
2022-11-01T04:25:48.661Z,2.60
2022-11-01T04:28:15.818Z,2.85
2022-11-01T04:30:43.846Z,3.08
2022-11-01T04:33:10.854Z,2.92
2022-11-01T04:35:38.215Z,3.22
2022-11-01T04:38:05.957Z,2.78
2022-11-01T04:40:33.849Z,2.70
2022-11-01T04:43:00.848Z,2.30
2022-11-01T04:45:27.710Z,2.75
2022-11-01T04:48:15.920Z,3.03
2022-11-01T04:50:43.030Z,2.80
2022-11-01T04:53:10.185Z,2.92
2022-11-01T04:55:37.053Z,3.47
2022-11-01T04:58:04.560Z,2.63
2022-11-01T05:00:33.270Z,2.90
2022-11-01T05:03:04.472Z,3.15
2022-11-01T05:05:31.962Z,3.40
2022-11-01T05:08:05.757Z,2.95
2022-11-01T05:10:33.133Z,3.60
2022-11-01T05:13:01.010Z,2.78
2022-11-01T05:15:28.224Z,2.97
2022-11-01T05:17:55.324Z,2.83
2022-11-01T05:20:22.190Z,2.80
2022-11-01T05:22:49.199Z,2.80
2022-11-01T05:25:16.748Z,3.20
2022-11-01T05:27:43.915Z,3.13
2022-11-01T05:30:11.398Z,3.00
2022-11-01T05:32:38.329Z,3.00
2022-11-01T05:35:06.286Z,3.30
2022-11-01T05:37:33.287Z,3.33
2022-11-01T05:40:00.288Z,3.38
2022-11-01T05:42:27.285Z,3.00
2022-11-01T05:44:54.174Z,3.50
2022-11-01T05:47:21.079Z,3.60
2022-11-01T05:49:47.950Z,3.40
2022-11-01T05:52:14.814Z,3.67
2022-11-01T05:54:41.704Z,3.72
2022-11-01T05:57:08.593Z,3.38
2022-11-01T05:59:35.469Z,3.90
2022-11-01T06:02:02.564Z,3.50
2022-11-01T06:04:29.512Z,3.72
2022-11-01T06:06:56.394Z,3.65
2022-11-01T06:09:23.300Z,3.10
2022-11-01T06:11:50.242Z,3.33
2022-11-01T06:14:17.218Z,3.45
2022-11-01T06:16:44.555Z,3.88
2022-11-01T06:19:11.762Z,3.67
2022-11-01T06:21:38.672Z,3.35
2022-11-01T06:24:05.755Z,3.63
2022-11-01T06:26:32.679Z,3.70
2022-11-01T06:29:02.930Z,3.42
2022-11-01T06:31:29.807Z,4.05
2022-11-01T06:33:56.658Z,4.22
2022-11-01T06:36:23.577Z,4.00
2022-11-01T06:38:50.730Z,4.47
2022-11-01T06:41:17.669Z,3.92
2022-11-01T06:43:44.503Z,3.83
2022-11-01T06:46:11.368Z,3.72
2022-11-01T06:48:38.413Z,4.28
2022-11-01T06:51:05.528Z,4.25
2022-11-01T06:53:32.547Z,3.72
2022-11-01T06:56:00.076Z,3.70
2022-11-01T06:58:27.668Z,3.83
2022-11-01T07:00:54.656Z,4.05
2022-11-01T07:03:21.621Z,4.47
2022-11-01T07:05:50.165Z,3.80
2022-11-01T07:08:17.278Z,3.78
2022-11-01T07:10:44.235Z,4.55
2022-11-01T07:13:13.017Z,4.03
2022-11-01T07:15:40.038Z,4.65
2022-11-01T07:18:08.297Z,4.32
2022-11-01T07:20:42.112Z,4.20
2022-11-01T07:23:13.935Z,3.70
2022-11-01T07:25:40.931Z,3.88
2022-11-01T07:28:07.890Z,3.35
2022-11-01T07:30:35.016Z,4.18
2022-11-01T07:33:03.776Z,3.90
2022-11-01T07:35:30.902Z,4.18
2022-11-01T07:37:59.311Z,3.85
2022-11-01T07:40:29.760Z,3.88
2022-11-01T07:43:00.579Z,3.65
2022-11-01T07:45:29.189Z,3.80
2022-11-01T07:48:02.596Z,3.70
2022-11-01T07:50:31.319Z,4.03
2022-11-01T07:53:02.431Z,4.35
2022-11-01T07:55:29.526Z,3.40
2022-11-01T07:57:56.821Z,3.22
2022-11-01T08:00:24.121Z,3.85
2022-11-01T08:02:51.419Z,3.63
2022-11-01T08:05:18.336Z,3.55
2022-11-01T08:07:45.476Z,3.97
2022-11-01T08:10:12.733Z,3.28
2022-11-01T08:12:39.714Z,3.10
2022-11-01T08:15:07.212Z,2.78
2022-11-01T08:17:34.203Z,3.65
2022-11-01T08:20:01.198Z,3.65
2022-11-01T08:22:28.212Z,3.42
2022-11-01T08:24:55.381Z,2.70
2022-11-01T08:27:22.327Z,3.35
2022-11-01T08:29:49.215Z,3.17
2022-11-01T08:32:20.511Z,3.83
2022-11-01T08:34:48.076Z,3.53
2022-11-01T08:37:15.156Z,2.58
2022-11-01T08:39:42.023Z,2.75
2022-11-01T08:42:09.373Z,3.10
2022-11-01T08:44:36.317Z,2.72
2022-11-01T08:47:03.206Z,3.22
2022-11-01T08:49:30.213Z,3.35
2022-11-01T08:51:57.178Z,2.90
2022-11-01T08:54:24.479Z,2.80
2022-11-01T08:56:51.367Z,2.70
2022-11-01T08:59:18.677Z,2.35
2022-11-01T09:01:45.731Z,3.17
2022-11-01T09:04:12.888Z,2.90
2022-11-01T09:06:39.812Z,3.30
2022-11-01T09:09:06.830Z,2.25
2022-11-01T09:11:33.712Z,2.28
2022-11-01T09:14:01.327Z,2.38
2022-11-01T09:16:28.484Z,2.67
2022-11-01T09:18:57.756Z,2.60
2022-11-01T09:21:29.027Z,2.70
2022-11-01T09:23:59.425Z,3.47
2022-11-01T09:26:30.472Z,2.75
2022-11-01T09:28:58.816Z,2.80
2022-11-01T09:31:25.964Z,2.50
2022-11-01T09:33:56.120Z,2.90
2022-11-01T09:36:24.136Z,3.30
2022-11-01T09:38:51.524Z,2.85
2022-11-01T09:41:32.433Z,2.80
2022-11-01T09:43:59.989Z,3.08
2022-11-01T09:46:31.267Z,3.33
2022-11-01T09:48:59.495Z,3.05
2022-11-01T09:51:26.552Z,2.50
2022-11-01T09:53:55.851Z,2.83
2022-11-01T09:56:53.033Z,2.65
2022-11-01T09:59:41.406Z,2.70
2022-11-01T10:02:25.821Z,2.83
2022-11-01T10:05:23.788Z,2.92
2022-11-01T10:07:57.103Z,3.25
2022-11-01T10:10:36.783Z,2.90
2022-11-01T10:13:31.423Z,3.35
2022-11-01T10:16:06.028Z,3.33
2022-11-01T10:18:37.279Z,2.75
2022-11-01T10:21:08.823Z,3.30
2022-11-01T10:23:41.220Z,2.85
2022-11-01T10:26:08.346Z,3.10
2022-11-01T10:28:50.142Z,2.80
2022-11-01T10:31:18.841Z,2.88
2022-11-01T10:33:55.372Z,2.80
2022-11-01T10:36:31.307Z,2.70
2022-11-01T10:41:52.603Z,2.30
2022-11-01T10:44:33.839Z,2.40
2022-11-01T10:47:04.964Z,2.13
2022-11-01T10:52:30.789Z,1.83
2022-11-01T10:54:57.919Z,2.10
2022-11-01T10:57:59.386Z,1.67
2022-11-01T11:00:26.997Z,1.60
2022-11-01T11:03:02.992Z,1.80
2022-11-01T11:05:30.025Z,1.77
2022-11-01T11:07:57.600Z,2.20
2022-11-01T11:10:29.353Z,1.70
2022-11-01T11:18:02.805Z,1.70
2022-11-01T11:20:34.284Z,1.80
2022-11-01T11:23:02.454Z,1.90
2022-11-01T11:25:37.124Z,1.70
2022-11-01T11:28:04.738Z,1.60
2022-11-01T11:30:33.250Z,1.98
2022-11-01T11:33:02.113Z,1.80
2022-11-01T11:35:32.936Z,1.88
2022-11-01T11:38:05.673Z,2.10
2022-11-01T11:40:39.399Z,2.17
2022-11-01T11:43:34.110Z,2.30
2022-11-01T11:46:05.105Z,2.33
2022-11-01T11:48:32.088Z,2.50
2022-11-01T11:51:03.562Z,2.60
2022-11-01T11:53:30.551Z,2.10
2022-11-01T11:55:58.533Z,2.45
2022-11-01T11:58:48.399Z,2.50
2022-11-01T12:01:21.447Z,2.30
2022-11-01T12:04:08.882Z,2.00
2022-11-01T12:06:39.076Z,2.42
2022-11-01T12:09:05.997Z,2.03
2022-11-01T12:11:41.673Z,2.35
2022-11-01T12:14:23.929Z,2.30
2022-11-01T12:16:50.900Z,2.13
2022-11-01T12:19:28.699Z,2.03
2022-11-01T12:22:05.719Z,1.90
2022-11-01T12:24:44.247Z,2.28
2022-11-01T12:27:14.815Z,2.22
2022-11-01T12:29:45.597Z,2.40
2022-11-01T12:32:18.883Z,2.10
2022-11-01T12:34:46.587Z,1.92
2022-11-01T12:37:36.905Z,2.85
2022-11-01T12:40:24.288Z,2.17
2022-11-01T12:43:11.986Z,2.35
2022-11-01T12:45:53.011Z,3.03
2022-11-01T12:48:28.842Z,2.28
2022-11-01T12:51:10.419Z,2.50
2022-11-01T12:53:39.664Z,2.33
2022-11-01T12:56:06.866Z,2.30
2022-11-01T12:58:36.270Z,2.30
2022-11-01T13:01:18.486Z,2.63
2022-11-01T13:04:04.321Z,2.65
2022-11-01T13:06:55.871Z,2.17
2022-11-01T13:09:57.799Z,2.40
2022-11-01T13:13:06.096Z,2.60
2022-11-01T13:15:56.847Z,2.35
2022-11-01T13:18:33.610Z,2.50
2022-11-01T13:21:19.038Z,2.30
2022-11-01T13:24:08.232Z,2.80
2022-11-01T13:26:49.951Z,2.20
2022-11-01T13:29:39.724Z,2.40
2022-11-01T13:32:24.581Z,2.60
2022-11-01T13:35:22.663Z,2.55
2022-11-01T13:38:27.779Z,2.85
2022-11-01T13:41:11.244Z,2.42
2022-11-01T13:43:41.116Z,2.15
2022-11-01T13:46:28.784Z,2.08
2022-11-01T13:49:19.105Z,1.90
2022-11-01T13:51:57.158Z,1.70
2022-11-01T13:54:37.161Z,1.70
2022-11-01T13:57:12.372Z,1.55
2022-11-01T13:59:41.833Z,1.58
2022-11-01T14:02:43.395Z,1.60
2022-11-01T14:05:17.002Z,1.70
2022-11-01T14:08:23.077Z,1.60
2022-11-01T14:10:55.066Z,1.70
2022-11-01T14:13:49.655Z,1.70
2022-11-01T14:16:37.666Z,1.40
2022-11-01T14:19:13.682Z,1.67
2022-11-01T14:21:46.426Z,1.63
2022-11-01T14:24:54.843Z,1.63
2022-11-01T14:27:29.835Z,2.03
2022-11-01T14:29:56.891Z,2.05
2022-11-01T14:32:28.355Z,2.00
2022-11-01T14:35:17.796Z,1.83
2022-11-01T14:37:49.766Z,2.08
2022-11-01T14:40:23.387Z,1.88
2022-11-01T14:42:50.513Z,2.10
2022-11-01T14:45:26.997Z,2.33
2022-11-01T14:47:54.509Z,2.10
2022-11-01T14:50:33.549Z,2.45
2022-11-01T14:53:07.378Z,2.60
2022-11-01T14:55:36.907Z,2.30
2022-11-01T14:58:21.092Z,2.33
2022-11-01T15:00:54.815Z,2.10
2022-11-01T15:03:22.371Z,2.13
2022-11-01T15:05:51.661Z,2.08
2022-11-01T15:08:25.311Z,1.90
2022-11-01T15:10:53.690Z,2.58
2022-11-01T15:13:20.963Z,2.55
2022-11-01T15:16:14.234Z,2.40
2022-11-01T15:18:48.519Z,2.15
2022-11-01T15:21:22.264Z,2.58
2022-11-01T15:23:52.395Z,2.22
2022-11-01T15:26:21.233Z,2.50
2022-11-01T15:28:56.248Z,2.50
2022-11-01T15:31:23.107Z,2.58
2022-11-01T15:34:05.924Z,2.53
2022-11-01T15:36:37.181Z,2.80
2022-11-01T15:39:17.242Z,3.05
2022-11-01T15:41:44.191Z,2.60
2022-11-01T15:44:27.010Z,2.75
2022-11-01T15:46:59.623Z,2.75
2022-11-01T15:49:29.773Z,2.70
2022-11-01T15:52:07.790Z,2.72
2022-11-01T15:54:49.966Z,2.90
2022-11-01T15:57:19.586Z,2.80
2022-11-01T16:00:06.960Z,3.35
2022-11-01T16:02:58.713Z,3.17
2022-11-01T16:05:29.565Z,3.10
2022-11-01T16:07:56.659Z,2.97
2022-11-01T16:10:27.674Z,2.88
2022-11-01T16:12:54.599Z,2.70
2022-11-01T16:15:27.313Z,2.92
2022-11-01T16:17:57.292Z,2.97
2022-11-01T16:20:30.359Z,3.00
2022-11-01T16:22:59.123Z,3.30
2022-11-01T16:25:27.507Z,3.67
2022-11-01T16:27:58.816Z,3.47
2022-11-01T16:30:42.974Z,3.45
2022-11-01T16:33:37.698Z,3.33
2022-11-01T16:36:36.646Z,2.97
2022-11-01T16:39:26.192Z,3.45
2022-11-01T16:41:53.321Z,3.20
2022-11-01T16:44:20.370Z,3.20
2022-11-01T16:46:47.370Z,3.00
2022-11-01T16:49:14.330Z,3.90
2022-11-01T16:51:41.319Z,3.30
2022-11-01T16:54:10.292Z,3.15
2022-11-01T16:56:38.502Z,3.50
2022-11-01T16:59:18.243Z,3.30
2022-11-01T17:01:45.794Z,3.65
2022-11-01T17:04:13.230Z,3.25
2022-11-01T17:06:40.411Z,3.63
2022-11-01T17:09:15.493Z,3.55
2022-11-01T17:11:47.833Z,3.00
2022-11-01T17:14:18.402Z,3.58
2022-11-01T17:16:47.625Z,3.60
2022-11-01T17:19:27.274Z,3.58
2022-11-01T17:21:54.346Z,3.30
2022-11-01T17:24:22.536Z,3.30
2022-11-01T17:26:50.008Z,3.20
2022-11-01T17:29:17.296Z,4.05
2022-11-01T17:31:44.708Z,3.00
2022-11-01T17:34:11.751Z,3.90
2022-11-01T17:36:38.821Z,3.47
2022-11-01T17:39:05.947Z,3.03
2022-11-01T17:41:33.199Z,3.47
2022-11-01T17:44:00.232Z,3.42
2022-11-01T17:46:27.365Z,2.47
2022-11-01T17:48:54.501Z,2.85
2022-11-01T17:51:23.138Z,2.65
2022-11-01T17:53:54.605Z,2.75
2022-11-01T17:56:22.257Z,2.58
2022-11-01T17:58:52.226Z,2.92
2022-11-01T18:01:21.081Z,2.63
2022-11-01T18:03:48.561Z,2.38
2022-11-01T18:06:15.568Z,2.40
2022-11-01T18:08:46.973Z,2.53
2022-11-01T18:11:34.521Z,2.40
2022-11-01T18:14:18.266Z,2.65
2022-11-01T18:17:02.277Z,2.30
2022-11-01T18:19:53.263Z,2.95
2022-11-01T18:22:39.376Z,2.50
2022-11-01T18:25:15.413Z,2.40
2022-11-01T18:27:42.415Z,2.38
2022-11-01T18:30:17.845Z,2.25
2022-11-01T18:33:03.987Z,2.60
2022-11-01T18:35:32.589Z,2.20
2022-11-01T18:38:26.794Z,2.70
2022-11-01T18:41:01.118Z,2.30
2022-11-01T18:43:32.735Z,2.38
2022-11-01T18:48:47.919Z,2.30
2022-11-01T18:51:23.319Z,2.58
2022-11-01T18:53:53.793Z,2.72
2022-11-01T18:56:22.598Z,2.65
2022-11-01T18:58:50.504Z,2.33
2022-11-01T19:01:22.000Z,2.45
2022-11-01T19:04:02.044Z,2.83
2022-11-01T19:06:28.922Z,2.10
2022-11-01T19:08:57.292Z,2.70
2022-11-01T19:11:28.059Z,2.80
2022-11-01T19:13:55.773Z,2.80
2022-11-01T19:16:22.635Z,2.90
2022-11-01T19:18:50.171Z,2.85
2022-11-01T19:21:21.630Z,3.03
2022-11-01T19:23:55.359Z,3.10
2022-11-01T19:26:34.707Z,3.00
2022-11-01T19:29:08.217Z,3.13
2022-11-01T19:31:37.265Z,3.08
2022-11-01T19:34:12.634Z,2.80
2022-11-01T19:36:41.320Z,3.38
2022-11-01T19:39:39.005Z,3.30
2022-11-01T19:42:31.556Z,2.67
2022-11-01T19:45:02.974Z,3.00
2022-11-01T19:47:36.122Z,3.15
2022-11-01T19:50:23.432Z,3.03
2022-11-01T19:52:51.235Z,2.85
2022-11-01T19:55:36.580Z,3.72
2022-11-01T19:58:22.625Z,3.10
2022-11-01T20:00:50.073Z,3.40
2022-11-01T20:03:34.976Z,2.80
2022-11-01T20:06:01.994Z,2.67
2022-11-01T20:08:38.013Z,2.28
2022-11-01T20:11:05.685Z,3.22
2022-11-01T20:13:32.654Z,3.25
2022-11-01T20:15:59.559Z,2.95
2022-11-01T20:18:26.956Z,2.78
2022-11-01T20:20:54.081Z,2.70
2022-11-01T20:23:26.391Z,3.03
2022-11-01T20:25:55.341Z,2.50
2022-11-01T20:28:22.492Z,2.85
2022-11-01T20:30:49.503Z,2.20
2022-11-01T20:33:16.415Z,3.17
2022-11-01T20:35:43.509Z,2.50
2022-11-01T20:38:10.528Z,2.92
2022-11-01T20:40:37.623Z,2.20
2022-11-01T20:43:05.021Z,2.85
2022-11-01T20:45:32.407Z,2.38
2022-11-01T20:47:59.577Z,2.60
2022-11-01T20:50:26.653Z,2.40
2022-11-01T20:52:53.627Z,2.17
2022-11-01T20:55:20.530Z,2.13
2022-11-01T20:57:47.592Z,2.72
2022-11-01T21:00:15.838Z,2.20
2022-11-01T21:02:43.321Z,1.90
2022-11-01T21:05:16.519Z,2.17
2022-11-01T21:07:47.737Z,2.30
2022-11-01T21:13:02.918Z,2.28
2022-11-01T21:15:38.364Z,2.28
2022-11-01T21:18:21.067Z,2.25
2022-11-01T21:20:48.767Z,2.17
2022-11-01T21:23:21.969Z,2.17
2022-11-01T21:25:49.497Z,2.17
2022-11-01T21:28:34.633Z,2.13
2022-11-01T21:31:10.606Z,2.00
2022-11-01T21:33:39.002Z,2.10
2022-11-01T21:36:21.314Z,2.38
2022-11-01T21:38:50.043Z,2.03
2022-11-01T21:41:22.325Z,2.20
2022-11-01T21:43:49.315Z,2.00
2022-11-01T21:46:17.110Z,2.17
2022-11-01T21:48:44.057Z,2.70
2022-11-01T21:51:11.087Z,2.90
2022-11-01T21:53:38.001Z,2.72
2022-11-01T21:56:05.252Z,2.78
2022-11-01T21:58:32.151Z,2.88
2022-11-01T22:00:59.164Z,2.97
2022-11-01T22:03:26.123Z,3.10
2022-11-01T22:05:53.051Z,2.80
2022-11-01T22:08:20.064Z,2.88
2022-11-01T22:10:47.139Z,2.85
2022-11-01T22:13:14.538Z,2.47
2022-11-01T22:15:41.657Z,2.80
2022-11-01T22:18:08.606Z,3.08
2022-11-01T22:20:35.555Z,3.47
2022-11-01T22:23:02.752Z,2.97
2022-11-01T22:25:29.967Z,3.28
2022-11-01T22:27:56.995Z,2.70
2022-11-01T22:30:23.947Z,2.72
2022-11-01T22:32:50.984Z,3.40
2022-11-01T22:35:18.009Z,2.95
2022-11-01T22:37:45.001Z,3.45
2022-11-01T22:40:12.679Z,2.80
2022-11-01T22:42:40.335Z,2.30
2022-11-01T22:45:15.189Z,2.42
2022-11-01T22:47:42.113Z,2.60
2022-11-01T22:50:14.254Z,2.47
2022-11-01T22:52:44.409Z,2.90
2022-11-01T22:55:11.392Z,2.55
2022-11-01T22:58:03.417Z,2.55
2022-11-01T23:00:34.861Z,2.40
2022-11-01T23:03:22.411Z,2.63
2022-11-01T23:06:00.385Z,2.22
2022-11-01T23:08:28.068Z,2.53
2022-11-01T23:10:56.419Z,3.03
2022-11-01T23:13:49.241Z,2.40
2022-11-01T23:16:25.868Z,2.60
2022-11-01T23:18:53.855Z,2.03
2022-11-01T23:21:21.426Z,2.30
2022-11-01T23:23:48.399Z,2.40
2022-11-01T23:26:16.670Z,2.20
2022-11-01T23:28:47.392Z,2.70
2022-11-01T23:31:14.359Z,2.50
2022-11-01T23:33:42.056Z,2.00
2022-11-01T23:36:34.325Z,2.65
2022-11-01T23:41:34.854Z,2.30
2022-11-01T23:44:03.643Z,1.80
2022-11-01T23:46:30.533Z,2.00
2022-11-01T23:49:02.193Z,2.25
2022-11-01T23:51:29.202Z,2.17
2022-11-01T23:53:56.079Z,2.00
2022-11-01T23:56:23.060Z,1.90
2022-11-01T23:59:05.217Z,2.00
